Paranam, Suriname
Current Conditions -  °F | °C
As of 12:00 AM on Monday 20 Oct 2014 (Local Time) from SMJP Reporting Station
Clear Clear  
Wind Chill: 79°   Ceiling: Unl
Heat Index: 82°   Visibility: 6mi
Dew Point: 75°   Wind: 2mph
Humidity: 89%   Direction: 130°SE
Pressure: 29.91"   Gusts: NA
Location:  5.61°N, 55.1°W
Report Text: SMJP 200300Z 13002KT CAVOK 26/24 Q1013 NOSIG
Loading
Personal Weather Stations






























Interactive Weather Map
Tropical Storm Tracking
New forecast layout! Learn more

10-Day Weather Forecast

Advertisements
Track Severe Weather on mobile